Silva, Missouri
Current Conditions -  °F | °C
As of 3:53 AM on Sunday 21 Dec 2014 (Local Time) from KPOF Reporting Station
Overcast Overcast  
Wind Chill: 39°   Ceiling: 2600
Heat Index: 39°   Visibility: 9mi
Dew Point: 31°   Wind: 3mph
Humidity: 73%   Direction: 90°E
Pressure: 30.22"   Gusts: NA
Location:  37.18°N, 90.46°W
Report Text: KPOF 210953Z AUTO 09003KT 9SM OVC026 04/M01 A3022 RMK AO2 SLP236 T00391006
Loading
Personal Weather Stations






























Interactive Weather Map New forecast layout! Learn more

10-Day Weather Forecast

Advertisements
Track Severe Weather on mobile